Time;durP1;ratioP1;P1;durP2;ratioP2;P2;SDS_P1;SDS_P2;PMS_P1;PMS_P2;Temp;Humidity;BMP_temperature;BMP_pressure;BME280_temperature;BME280_humidity;BME280_pressure;Samples;Min_cycle;Max_cycle;Signal;HPM_P1;HPM_P2
2023/05/20 00:00:19;;;;;;;;;;;20.50;50.20;;;;;;10328017;28;760;-72
2023/05/20 00:05:14;;;;;;;;;;;20.50;50.20;;;;;;10328504;28;813;-72
2023/05/20 00:10:10;;;;;;;;;;;20.50;50.30;;;;;;10327628;28;861;-72
2023/05/20 00:15:05;;;;;;;;;;;20.50;50.20;;;;;;10328128;28;1959;-72
2023/05/20 00:20:00;;;;;;;;;;;20.50;50.20;;;;;;10327863;28;837;-72
2023/05/20 00:24:56;;;;;;;;;;;20.50;50.20;;;;;;10327651;28;855;-72
2023/05/20 00:29:51;;;;;;;;;;;20.50;50.20;;;;;;10326895;28;1003;-72
2023/05/20 00:34:46;;;;;;;;;;;20.50;50.20;;;;;;10326074;28;1898;-72
2023/05/20 00:39:42;;;;;;;;;;;20.50;50.20;;;;;;10327139;28;804;-72
2023/05/20 00:44:37;;;;;;;;;;;20.50;50.20;;;;;;10327030;28;893;-72
2023/05/20 00:49:33;;;;;;;;;;;20.40;50.10;;;;;;10326640;28;868;-72
2023/05/20 00:54:28;;;;;;;;;;;20.40;50.10;;;;;;10325983;28;1957;-72
2023/05/20 00:59:24;;;;;;;;;;;20.40;50.10;;;;;;10325969;28;853;-72
2023/05/20 01:04:19;;;;;;;;;;;20.40;50.10;;;;;;10325995;28;872;-72
2023/05/20 01:09:15;;;;;;;;;;;20.40;50.10;;;;;;10325734;28;764;-72
2023/05/20 01:14:10;;;;;;;;;;;20.40;50.10;;;;;;10326297;28;1894;-72
2023/05/20 01:19:05;;;;;;;;;;;20.40;50.10;;;;;;10325645;28;897;-72
2023/05/20 01:24:04;;;;;;;;;;;20.40;50.10;;;;;;10325408;28;849;-72
2023/05/20 01:29:03;;;;;;;;;;;20.50;50.10;;;;;;10325466;28;871;-72
2023/05/20 01:33:58;;;;;;;;;;;20.40;50.10;;;;;;10324899;28;1894;-72
2023/05/20 01:38:53;;;;;;;;;;;20.40;50.10;;;;;;10325128;28;1023;-72
2023/05/20 01:43:49;;;;;;;;;;;20.40;50.00;;;;;;10325009;28;849;-72
2023/05/20 01:48:44;;;;;;;;;;;20.40;50.00;;;;;;10325579;28;864;-72
2023/05/20 01:53:40;;;;;;;;;;;20.40;50.00;;;;;;10324709;28;1906;-72
2023/05/20 01:58:35;;;;;;;;;;;20.40;50.30;;;;;;10326099;28;944;-72
2023/05/20 02:03:30;;;;;;;;;;;20.40;50.10;;;;;;10324500;28;919;-72
2023/05/20 02:08:26;;;;;;;;;;;20.40;50.00;;;;;;10325219;28;825;-72
2023/05/20 02:13:21;;;;;;;;;;;20.40;50.00;;;;;;10324405;28;1948;-72
2023/05/20 02:18:17;;;;;;;;;;;20.40;50.00;;;;;;10325017;28;848;-72
2023/05/20 02:23:12;;;;;;;;;;;20.40;50.00;;;;;;10325017;28;789;-72
2023/05/20 02:28:09;;;;;;;;;;;20.30;50.00;;;;;;10324184;28;992;-72
2023/05/20 02:33:05;;;;;;;;;;;20.30;50.00;;;;;;10324035;28;1898;-72
2023/05/20 02:38:01;;;;;;;;;;;20.30;50.00;;;;;;10325395;28;1199;-72
2023/05/20 02:42:56;;;;;;;;;;;20.40;50.00;;;;;;10332328;28;935;-72
2023/05/20 02:47:51;;;;;;;;;;;20.40;50.00;;;;;;10331533;28;884;-72
2023/05/20 02:52:47;;;;;;;;;;;20.30;50.00;;;;;;10331140;28;1910;-72
2023/05/20 02:57:42;;;;;;;;;;;20.30;50.00;;;;;;10330616;28;811;-72
2023/05/20 03:02:38;;;;;;;;;;;20.30;50.00;;;;;;10330407;28;817;-72
2023/05/20 03:07:35;;;;;;;;;;;20.30;50.00;;;;;;10331459;28;853;-72
2023/05/20 03:12:30;;;;;;;;;;;20.30;50.00;;;;;;10329884;28;1906;-72
2023/05/20 03:17:25;;;;;;;;;;;20.30;50.00;;;;;;10329215;28;857;-72
2023/05/20 03:22:21;;;;;;;;;;;20.30;50.10;;;;;;10329607;28;763;-72
2023/05/20 03:27:16;;;;;;;;;;;20.30;50.10;;;;;;10328982;28;901;-72
2023/05/20 03:32:11;;;;;;;;;;;20.30;50.10;;;;;;10329214;28;1906;-72
2023/05/20 03:37:07;;;;;;;;;;;20.30;50.10;;;;;;10328760;28;1215;-72
2023/05/20 03:42:02;;;;;;;;;;;20.20;50.10;;;;;;10329439;28;936;-72
2023/05/20 03:46:57;;;;;;;;;;;20.30;50.20;;;;;;10328651;28;757;-72
2023/05/20 03:51:53;;;;;;;;;;;20.20;50.10;;;;;;10328777;28;1910;-72
2023/05/20 03:56:48;;;;;;;;;;;20.30;50.20;;;;;;10328474;28;1000;-72
2023/05/20 04:01:43;;;;;;;;;;;20.30;50.10;;;;;;10327478;28;912;-72
2023/05/20 04:06:39;;;;;;;;;;;20.30;50.10;;;;;;10327861;28;805;-72
2023/05/20 04:11:34;;;;;;;;;;;20.30;50.10;;;;;;10327512;28;1909;-72
2023/05/20 04:16:30;;;;;;;;;;;20.20;50.10;;;;;;10327439;28;955;-72
2023/05/20 04:21:25;;;;;;;;;;;20.20;50.10;;;;;;10328040;28;881;-72
2023/05/20 04:26:21;;;;;;;;;;;20.30;50.20;;;;;;10328279;28;825;-72
2023/05/20 04:31:17;;;;;;;;;;;20.30;50.10;;;;;;10326838;28;1969;-72
2023/05/20 04:36:14;;;;;;;;;;;20.20;50.10;;;;;;10326124;28;1255;-72
2023/05/20 04:41:10;;;;;;;;;;;20.30;50.10;;;;;;10326809;28;782;-72
2023/05/20 04:46:05;;;;;;;;;;;20.30;50.10;;;;;;10325725;28;857;-72
2023/05/20 04:51:01;;;;;;;;;;;20.30;50.10;;;;;;10326328;28;818;-72
2023/05/20 04:55:56;;;;;;;;;;;20.30;50.10;;;;;;10326600;28;1914;-72
2023/05/20 05:00:51;;;;;;;;;;;20.30;50.10;;;;;;10325346;28;810;-72
2023/05/20 05:05:47;;;;;;;;;;;20.30;50.00;;;;;;10326671;28;879;-72
2023/05/20 05:10:42;;;;;;;;;;;20.30;50.00;;;;;;10325702;28;806;-71
2023/05/20 05:15:37;;;;;;;;;;;20.30;50.10;;;;;;10326140;28;1963;-72
2023/05/20 05:20:33;;;;;;;;;;;20.30;50.10;;;;;;10325503;28;1388;-71
2023/05/20 05:25:28;;;;;;;;;;;20.30;50.00;;;;;;10325443;28;753;-71
2023/05/20 05:30:24;;;;;;;;;;;20.30;50.10;;;;;;10325420;28;1019;-72
2023/05/20 05:35:19;;;;;;;;;;;20.30;50.10;;;;;;10325175;28;1906;-70
2023/05/20 05:40:14;;;;;;;;;;;20.30;50.20;;;;;;10325714;28;819;-71
2023/05/20 05:45:10;;;;;;;;;;;20.30;50.30;;;;;;10323146;28;1070;-72
2023/05/20 05:50:05;;;;;;;;;;;20.40;50.40;;;;;;10324832;28;821;-72
2023/05/20 05:55:00;;;;;;;;;;;20.30;50.30;;;;;;10324426;28;1910;-72
2023/05/20 05:59:56;;;;;;;;;;;20.30;50.30;;;;;;10325377;28;844;-72
2023/05/20 06:04:51;;;;;;;;;;;20.30;50.30;;;;;;10325469;28;841;-72
2023/05/20 06:09:47;;;;;;;;;;;20.30;50.40;;;;;;10324242;28;833;-71
2023/05/20 06:14:42;;;;;;;;;;;20.30;50.50;;;;;;10330189;28;1965;-72
2023/05/20 06:19:37;;;;;;;;;;;20.30;50.50;;;;;;10333325;28;881;-72
2023/05/20 06:24:33;;;;;;;;;;;20.20;50.50;;;;;;10332484;28;873;-71
2023/05/20 06:29:28;;;;;;;;;;;20.20;50.60;;;;;;10332219;28;840;-72
2023/05/20 06:34:23;;;;;;;;;;;20.20;50.60;;;;;;10330838;28;1957;-71
2023/05/20 06:39:19;;;;;;;;;;;20.20;50.60;;;;;;10332150;28;885;-71
2023/05/20 06:44:14;;;;;;;;;;;20.20;50.60;;;;;;10331737;28;938;-71
2023/05/20 06:49:10;;;;;;;;;;;20.20;50.60;;;;;;10331633;28;932;-72
2023/05/20 06:54:05;;;;;;;;;;;20.30;50.70;;;;;;10331325;28;1971;-71
2023/05/20 06:59:00;;;;;;;;;;;20.30;50.70;;;;;;10330576;28;1222;-71
2023/05/20 07:03:56;;;;;;;;;;;20.30;50.70;;;;;;10330936;28;798;-72
2023/05/20 07:08:51;;;;;;;;;;;20.30;50.80;;;;;;10330256;28;958;-72
2023/05/20 07:13:46;;;;;;;;;;;20.30;50.70;;;;;;10329965;28;1959;-71
2023/05/20 07:18:42;;;;;;;;;;;20.30;50.80;;;;;;10329944;28;848;-71
2023/05/20 07:23:37;;;;;;;;;;;20.30;50.80;;;;;;10329589;28;865;-71
2023/05/20 07:28:33;;;;;;;;;;;20.30;50.90;;;;;;10330039;28;770;-72
2023/05/20 07:33:29;;;;;;;;;;;20.30;50.90;;;;;;10329126;28;1961;-72
2023/05/20 07:38:24;;;;;;;;;;;20.30;50.90;;;;;;10329729;28;1243;-72
2023/05/20 07:43:20;;;;;;;;;;;20.30;50.90;;;;;;10329498;28;840;-72
2023/05/20 07:48:15;;;;;;;;;;;20.30;50.90;;;;;;10328636;28;793;-72
2023/05/20 07:53:11;;;;;;;;;;;20.30;50.80;;;;;;10328401;28;1971;-71
2023/05/20 07:58:06;;;;;;;;;;;20.30;50.80;;;;;;10328838;28;837;-72
2023/05/20 08:03:01;;;;;;;;;;;20.30;50.90;;;;;;10328531;28;993;-70
2023/05/20 08:07:57;;;;;;;;;;;20.30;50.90;;;;;;10328476;28;831;-69
2023/05/20 08:12:52;;;;;;;;;;;20.30;50.90;;;;;;10327583;28;1961;-69
2023/05/20 08:17:47;;;;;;;;;;;20.30;50.90;;;;;;10328028;28;813;-69
2023/05/20 08:22:43;;;;;;;;;;;20.30;50.90;;;;;;10328549;28;885;-69
2023/05/20 08:27:38;;;;;;;;;;;20.30;50.90;;;;;;10327642;28;837;-69
2023/05/20 08:32:34;;;;;;;;;;;20.30;51.00;;;;;;10326904;28;1956;-69
2023/05/20 08:37:29;;;;;;;;;;;20.30;50.90;;;;;;10326336;28;1164;-69
2023/05/20 08:42:25;;;;;;;;;;;20.20;51.00;;;;;;10326689;28;801;-69
2023/05/20 08:47:21;;;;;;;;;;;20.20;51.00;;;;;;10326851;28;781;-69
2023/05/20 08:52:16;;;;;;;;;;;20.20;51.00;;;;;;10327308;28;1917;-69
2023/05/20 08:57:12;;;;;;;;;;;20.20;51.00;;;;;;10326715;28;875;-68
2023/05/20 09:02:08;;;;;;;;;;;20.20;51.00;;;;;;10325969;28;991;-69
2023/05/20 09:07:03;;;;;;;;;;;20.30;51.10;;;;;;10325909;28;921;-70
2023/05/20 09:11:59;;;;;;;;;;;20.30;51.10;;;;;;10326284;28;1967;-68
2023/05/20 09:16:54;;;;;;;;;;;20.30;51.20;;;;;;10325622;28;782;-67
2023/05/20 09:21:50;;;;;;;;;;;20.30;51.20;;;;;;10326108;28;834;-68
2023/05/20 09:26:45;;;;;;;;;;;20.30;51.10;;;;;;10324864;28;755;-67
2023/05/20 09:31:41;;;;;;;;;;;20.30;51.20;;;;;;10325279;28;1906;-69
2023/05/20 09:36:36;;;;;;;;;;;20.20;51.10;;;;;;10324812;28;1374;-69
2023/05/20 09:41:32;;;;;;;;;;;20.30;51.10;;;;;;10325149;28;800;-69
2023/05/20 09:46:28;;;;;;;;;;;20.20;51.10;;;;;;10325878;28;806;-69
2023/05/20 09:51:23;;;;;;;;;;;20.20;51.00;;;;;;10333904;28;953;-69
2023/05/20 09:56:18;;;;;;;;;;;20.20;51.20;;;;;;10332976;28;1922;-69
2023/05/20 10:01:14;;;;;;;;;;;20.20;51.20;;;;;;10334088;28;861;-68
2023/05/20 10:06:09;;;;;;;;;;;20.20;51.20;;;;;;10332626;28;876;-68
2023/05/20 10:11:04;;;;;;;;;;;20.20;51.20;;;;;;10332460;28;775;-68
2023/05/20 10:16:00;;;;;;;;;;;20.20;51.20;;;;;;10332154;28;1902;-67
2023/05/20 10:20:55;;;;;;;;;;;20.20;51.10;;;;;;10332657;28;861;-67
2023/05/20 10:25:52;;;;;;;;;;;20.20;51.10;;;;;;10332468;28;940;-67
2023/05/20 10:30:47;;;;;;;;;;;20.30;51.10;;;;;;10332612;28;898;-67
2023/05/20 10:35:42;;;;;;;;;;;20.20;51.10;;;;;;10331590;28;1967;-68
2023/05/20 10:40:38;;;;;;;;;;;20.20;51.10;;;;;;10331895;28;829;-68
2023/05/20 10:45:36;;;;;;;;;;;20.20;51.10;;;;;;10331684;28;861;-68
2023/05/20 10:50:31;;;;;;;;;;;20.20;51.10;;;;;;10331397;28;803;-68
2023/05/20 10:55:26;;;;;;;;;;;20.30;51.10;;;;;;10330724;28;1922;-68
2023/05/20 11:00:22;;;;;;;;;;;20.30;51.20;;;;;;10329569;28;1040;-68
2023/05/20 11:05:17;;;;;;;;;;;20.30;51.20;;;;;;10331006;28;956;-68
2023/05/20 11:10:13;;;;;;;;;;;20.30;51.20;;;;;;10330989;28;790;-68
2023/05/20 11:15:08;;;;;;;;;;;20.30;51.10;;;;;;10330802;28;1906;-68
2023/05/20 11:20:03;;;;;;;;;;;20.30;51.20;;;;;;10329856;28;862;-68
2023/05/20 11:24:59;;;;;;;;;;;20.30;51.20;;;;;;10328957;28;1319;-71
2023/05/20 11:29:55;;;;;;;;;;;20.30;51.20;;;;;;10330106;28;857;-67
2023/05/20 11:34:50;;;;;;;;;;;20.30;51.20;;;;;;10330294;28;1959;-68
2023/05/20 11:39:45;;;;;;;;;;;20.30;51.20;;;;;;10329055;28;894;-68
2023/05/20 11:44:41;;;;;;;;;;;20.30;51.30;;;;;;10329586;28;916;-68
2023/05/20 11:49:36;;;;;;;;;;;20.20;51.40;;;;;;10328651;28;866;-68
2023/05/20 11:54:32;;;;;;;;;;;20.20;51.30;;;;;;10328805;28;1973;-68
2023/05/20 11:59:27;;;;;;;;;;;20.20;51.40;;;;;;10311009;28;743;-68
2023/05/20 12:04:22;;;;;;;;;;;20.20;51.50;;;;;;10327815;28;777;-68
2023/05/20 12:09:18;;;;;;;;;;;20.20;51.50;;;;;;10327608;28;818;-69
2023/05/20 12:14:14;;;;;;;;;;;20.30;51.60;;;;;;10327375;28;1957;-67
2023/05/20 12:19:09;;;;;;;;;;;20.20;51.50;;;;;;10327790;28;750;-67
2023/05/20 12:24:07;;;;;;;;;;;20.20;51.60;;;;;;10327619;28;833;-68
2023/05/20 12:29:02;;;;;;;;;;;20.20;51.60;;;;;;10326960;28;1648;-68
2023/05/20 12:33:58;;;;;;;;;;;20.20;51.90;;;;;;10325956;28;1909;-68
2023/05/20 12:38:54;;;;;;;;;;;20.20;52.00;;;;;;10325726;28;1124;-68
2023/05/20 12:43:49;;;;;;;;;;;20.20;51.90;;;;;;10327044;28;833;-70
2023/05/20 12:48:45;;;;;;;;;;;20.20;52.00;;;;;;10326838;28;894;-68
2023/05/20 12:53:40;;;;;;;;;;;20.30;52.30;;;;;;10325919;28;1971;-68
2023/05/20 12:58:36;;;;;;;;;;;20.20;52.20;;;;;;10326271;28;798;-68
2023/05/20 13:03:31;;;;;;;;;;;20.20;52.20;;;;;;10327209;28;873;-67
2023/05/20 13:08:26;;;;;;;;;;;20.20;52.10;;;;;;10324999;28;822;-68
2023/05/20 13:13:22;;;;;;;;;;;20.30;52.10;;;;;;10326009;28;1901;-67
2023/05/20 13:18:18;;;;;;;;;;;20.30;52.80;;;;;;10326069;28;980;-68
2023/05/20 13:23:13;;;;;;;;;;;20.30;52.10;;;;;;10324751;28;766;-68
2023/05/20 13:28:09;;;;;;;;;;;20.30;52.00;;;;;;10325459;28;900;-68
2023/05/20 13:33:05;;;;;;;;;;;20.30;52.10;;;;;;10325619;28;1971;-69
2023/05/20 13:38:00;;;;;;;;;;;20.30;52.00;;;;;;10325420;28;1176;-70
2023/05/20 13:42:56;;;;;;;;;;;20.30;52.00;;;;;;10324898;28;932;-69
2023/05/20 13:47:51;;;;;;;;;;;20.30;52.00;;;;;;10324143;28;1326;-70
2023/05/20 13:52:46;;;;;;;;;;;20.30;52.10;;;;;;10324736;28;1973;-69
2023/05/20 13:57:42;;;;;;;;;;;20.30;52.20;;;;;;10324725;28;786;-70
2023/05/20 14:02:37;;;;;;;;;;;20.30;52.30;;;;;;10324506;28;870;-69
2023/05/20 14:07:33;;;;;;;;;;;20.30;52.40;;;;;;10325012;28;937;-70
2023/05/20 14:12:28;;;;;;;;;;;20.30;53.00;;;;;;10324319;28;1902;-69
2023/05/20 14:17:24;;;;;;;;;;;20.30;52.50;;;;;;10324819;28;794;-69
2023/05/20 14:22:20;;;;;;;;;;;20.30;52.50;;;;;;10324761;28;840;-69
2023/05/20 14:27:15;;;;;;;;;;;20.30;52.50;;;;;;10324065;28;806;-69
2023/05/20 14:32:12;;;;;;;;;;;20.30;52.50;;;;;;10325309;28;1902;-69
2023/05/20 14:37:08;;;;;;;;;;;20.30;52.60;;;;;;10330627;28;1433;-70
2023/05/20 14:42:04;;;;;;;;;;;20.30;52.80;;;;;;10331643;28;993;-69
2023/05/20 14:46:59;;;;;;;;;;;20.30;52.60;;;;;;10331517;28;798;-69
2023/05/20 14:51:55;;;;;;;;;;;20.30;52.70;;;;;;10331269;28;1918;-70
2023/05/20 14:56:50;;;;;;;;;;;20.30;52.80;;;;;;10331263;28;787;-69
2023/05/20 15:01:46;;;;;;;;;;;20.30;52.90;;;;;;10330555;28;960;-69
2023/05/20 15:06:41;;;;;;;;;;;20.20;52.70;;;;;;10330466;28;798;-69
2023/05/20 15:11:36;;;;;;;;;;;20.20;52.80;;;;;;10330861;28;1967;-69
2023/05/20 15:16:32;;;;;;;;;;;20.20;52.80;;;;;;10330262;28;955;-69
2023/05/20 15:21:27;;;;;;;;;;;20.20;52.70;;;;;;10329625;28;853;-69
2023/05/20 15:26:22;;;;;;;;;;;20.20;52.70;;;;;;10329633;28;961;-69
2023/05/20 15:31:18;;;;;;;;;;;20.20;52.60;;;;;;10329568;28;945;-69
2023/05/20 15:36:13;;;;;;;;;;;20.20;52.60;;;;;;10329415;28;1902;-69
2023/05/20 15:41:11;;;;;;;;;;;20.20;52.60;;;;;;10329696;28;880;-69
2023/05/20 15:46:06;;;;;;;;;;;20.20;52.50;;;;;;10328317;28;1000;-69
2023/05/20 15:51:01;;;;;;;;;;;20.20;52.50;;;;;;10328700;28;775;-69
2023/05/20 15:55:57;;;;;;;;;;;20.20;52.50;;;;;;10328409;28;1909;-69
2023/05/20 16:00:52;;;;;;;;;;;20.20;52.50;;;;;;10328556;28;810;-69
2023/05/20 16:05:48;;;;;;;;;;;20.20;52.70;;;;;;10328103;28;777;-68
2023/05/20 16:10:43;;;;;;;;;;;20.20;52.60;;;;;;10327902;28;961;-68
2023/05/20 16:15:38;;;;;;;;;;;20.20;52.70;;;;;;10327653;28;1951;-72
2023/05/20 16:20:34;;;;;;;;;;;20.20;52.60;;;;;;10327545;28;821;-72
2023/05/20 16:25:29;;;;;;;;;;;20.20;52.50;;;;;;10327278;28;882;-72
2023/05/20 16:30:25;;;;;;;;;;;20.20;52.50;;;;;;10327128;28;873;-72
2023/05/20 16:35:20;;;;;;;;;;;20.20;52.50;;;;;;10326651;28;1910;-73
2023/05/20 16:40:16;;;;;;;;;;;20.20;52.50;;;;;;10326726;28;901;-75
2023/05/20 16:45:11;;;;;;;;;;;20.20;52.50;;;;;;10326472;28;829;-73
2023/05/20 16:50:06;;;;;;;;;;;20.20;52.40;;;;;;10326409;28;782;-73
2023/05/20 16:55:02;;;;;;;;;;;20.20;52.30;;;;;;10326226;28;1973;-73
2023/05/20 16:59:57;;;;;;;;;;;20.20;52.30;;;;;;10325371;28;776;-72
2023/05/20 17:04:53;;;;;;;;;;;20.20;52.30;;;;;;10325636;28;896;-80
2023/05/20 17:09:48;;;;;;;;;;;20.20;52.30;;;;;;10325265;28;869;-80
2023/05/20 17:14:44;;;;;;;;;;;20.20;52.30;;;;;;10325682;28;1958;-80
2023/05/20 17:19:39;;;;;;;;;;;20.10;52.30;;;;;;10325585;28;941;-73
2023/05/20 17:24:37;;;;;;;;;;;20.20;52.30;;;;;;10326174;28;826;-73
2023/05/20 17:29:33;;;;;;;;;;;20.20;52.20;;;;;;10325472;28;871;-73
2023/05/20 17:34:28;;;;;;;;;;;20.20;52.20;;;;;;10325205;28;1898;-73
2023/05/20 17:39:24;;;;;;;;;;;20.20;52.20;;;;;;10325256;28;887;-73
2023/05/20 17:44:19;;;;;;;;;;;20.20;52.20;;;;;;10325178;28;849;-73
2023/05/20 17:49:15;;;;;;;;;;;20.20;52.20;;;;;;10325078;28;893;-73
2023/05/20 17:54:10;;;;;;;;;;;20.20;52.20;;;;;;10324945;28;1977;-73
2023/05/20 17:59:06;;;;;;;;;;;20.20;52.20;;;;;;10324229;28;1104;-73
2023/05/20 18:04:04;;;;;;;;;;;20.20;52.10;;;;;;10324730;28;771;-73
2023/05/20 18:09:00;;;;;;;;;;;20.20;52.10;;;;;;10327838;28;949;-73
2023/05/20 18:13:57;;;;;;;;;;;20.30;52.10;;;;;;10331701;28;1910;-73
2023/05/20 18:18:53;;;;;;;;;;;20.30;52.00;;;;;;10332170;28;886;-73
2023/05/20 18:23:48;;;;;;;;;;;20.30;52.00;;;;;;10333634;28;860;-73
2023/05/20 18:28:43;;;;;;;;;;;20.30;52.00;;;;;;10332064;28;925;-73
2023/05/20 18:33:39;;;;;;;;;;;20.30;52.00;;;;;;10332045;28;1906;-73
2023/05/20 18:38:35;;;;;;;;;;;20.30;52.60;;;;;;10331561;28;1421;-73
2023/05/20 18:43:30;;;;;;;;;;;20.30;51.90;;;;;;10331362;28;883;-73
2023/05/20 18:48:26;;;;;;;;;;;20.30;51.90;;;;;;10331109;28;783;-73
2023/05/20 18:53:21;;;;;;;;;;;20.20;52.00;;;;;;10331565;28;1922;-73
2023/05/20 18:58:16;;;;;;;;;;;20.30;52.10;;;;;;10330841;28;872;-73
2023/05/20 19:03:12;;;;;;;;;;;20.20;52.00;;;;;;10330695;28;770;-73
2023/05/20 19:08:08;;;;;;;;;;;20.20;52.00;;;;;;10331070;28;904;-73
2023/05/20 19:13:03;;;;;;;;;;;20.30;52.30;;;;;;10330493;28;1967;-73
2023/05/20 19:17:58;;;;;;;;;;;20.30;52.00;;;;;;10330870;28;861;-73
2023/05/20 19:22:54;;;;;;;;;;;20.20;52.00;;;;;;10329016;28;829;-73
2023/05/20 19:27:49;;;;;;;;;;;20.20;52.00;;;;;;10329679;28;902;-73
2023/05/20 19:32:45;;;;;;;;;;;20.20;52.00;;;;;;10330298;28;1918;-73
2023/05/20 19:37:40;;;;;;;;;;;20.20;52.00;;;;;;10329289;28;1458;-73
2023/05/20 19:42:35;;;;;;;;;;;20.20;52.00;;;;;;10329155;28;774;-73
2023/05/20 19:47:31;;;;;;;;;;;20.20;52.00;;;;;;10328853;28;834;-73
2023/05/20 19:52:26;;;;;;;;;;;20.20;52.00;;;;;;10329193;28;1917;-73
2023/05/20 19:57:22;;;;;;;;;;;20.20;52.10;;;;;;10328481;28;928;-73
2023/05/20 20:02:17;;;;;;;;;;;20.20;52.10;;;;;;10327731;28;912;-73
2023/05/20 20:07:12;;;;;;;;;;;20.10;52.10;;;;;;10328065;28;966;-73
2023/05/20 20:12:08;;;;;;;;;;;20.10;52.20;;;;;;10327144;28;1910;-73
2023/05/20 20:17:05;;;;;;;;;;;20.00;52.10;;;;;;10328236;28;825;-73
2023/05/20 20:22:00;;;;;;;;;;;20.00;52.10;;;;;;10328336;28;861;-73
2023/05/20 20:26:56;;;;;;;;;;;20.00;52.10;;;;;;10327910;28;873;-73
2023/05/20 20:31:51;;;;;;;;;;;20.10;52.20;;;;;;10327138;28;1901;-73
2023/05/20 20:36:46;;;;;;;;;;;20.10;52.20;;;;;;10326911;28;1321;-73
2023/05/20 20:41:43;;;;;;;;;;;20.10;52.30;;;;;;10326171;28;888;-73
2023/05/20 20:46:40;;;;;;;;;;;20.10;52.20;;;;;;10326762;28;884;-73
2023/05/20 20:51:35;;;;;;;;;;;20.00;52.10;;;;;;10326421;28;882;-73
2023/05/20 20:56:35;;;;;;;;;;;20.00;52.10;;;;;;10326233;28;1968;-73
2023/05/20 21:01:34;;;;;;;;;;;20.00;52.10;;;;;;10326784;28;872;-73
2023/05/20 21:06:29;;;;;;;;;;;20.00;52.20;;;;;;10325965;28;889;-73
2023/05/20 21:11:26;;;;;;;;;;;20.00;52.30;;;;;;10325886;28;886;-72
2023/05/20 21:16:22;;;;;;;;;;;20.00;52.20;;;;;;10325704;28;1898;-72
2023/05/20 21:21:20;;;;;;;;;;;20.00;52.30;;;;;;10326270;28;790;-72
2023/05/20 21:26:15;;;;;;;;;;;20.00;52.30;;;;;;10326131;28;852;-72
2023/05/20 21:31:11;;;;;;;;;;;20.00;52.30;;;;;;10325465;28;975;-72
2023/05/20 21:36:06;;;;;;;;;;;20.00;52.20;;;;;;10325599;28;1961;-72
2023/05/20 21:41:01;;;;;;;;;;;20.00;52.10;;;;;;10325386;28;841;-72
2023/05/20 21:45:57;;;;;;;;;;;20.00;52.10;;;;;;10332598;28;869;-72
2023/05/20 21:50:52;;;;;;;;;;;20.00;52.10;;;;;;10333510;28;870;-72
2023/05/20 21:55:48;;;;;;;;;;;20.00;52.10;;;;;;10333177;28;1964;-72
2023/05/20 22:00:43;;;;;;;;;;;20.00;52.10;;;;;;10333693;28;821;-72
2023/05/20 22:05:39;;;;;;;;;;;20.00;52.00;;;;;;10333475;28;846;-72
2023/05/20 22:10:35;;;;;;;;;;;20.00;52.00;;;;;;10333284;28;789;-72
2023/05/20 22:15:30;;;;;;;;;;;20.00;52.00;;;;;;10332339;28;1902;-72
2023/05/20 22:20:27;;;;;;;;;;;20.00;52.10;;;;;;10332878;28;938;-72
2023/05/20 22:25:22;;;;;;;;;;;20.00;52.10;;;;;;10332717;28;762;-72
2023/05/20 22:30:18;;;;;;;;;;;20.00;52.10;;;;;;10331894;28;970;-72
2023/05/20 22:35:13;;;;;;;;;;;20.00;52.10;;;;;;10314690;28;1953;-72
2023/05/20 22:40:09;;;;;;;;;;;20.00;52.10;;;;;;10331578;28;870;-72
2023/05/20 22:45:05;;;;;;;;;;;20.00;52.10;;;;;;10331942;28;857;-72
2023/05/20 22:50:01;;;;;;;;;;;20.00;52.10;;;;;;10331945;28;810;-72
2023/05/20 22:54:57;;;;;;;;;;;20.00;52.10;;;;;;10329588;28;1918;-72
2023/05/20 22:59:54;;;;;;;;;;;20.00;52.10;;;;;;10330811;28;866;-72
2023/05/20 23:04:49;;;;;;;;;;;19.90;52.10;;;;;;10330893;28;894;-72
2023/05/20 23:09:45;;;;;;;;;;;20.00;52.10;;;;;;10330465;28;810;-72
2023/05/20 23:14:41;;;;;;;;;;;20.00;52.10;;;;;;10330856;28;1902;-72
2023/05/20 23:19:36;;;;;;;;;;;20.00;52.00;;;;;;10330668;28;881;-72
2023/05/20 23:24:31;;;;;;;;;;;20.00;52.10;;;;;;10330683;28;940;-72
2023/05/20 23:29:27;;;;;;;;;;;20.00;52.10;;;;;;10329768;28;817;-72
2023/05/20 23:34:22;;;;;;;;;;;19.90;52.00;;;;;;10329895;28;1906;-72
2023/05/20 23:39:18;;;;;;;;;;;19.90;52.00;;;;;;10330030;28;821;-72
2023/05/20 23:44:13;;;;;;;;;;;20.00;52.10;;;;;;10329146;28;959;-72
2023/05/20 23:49:08;;;;;;;;;;;20.00;52.10;;;;;;10328944;28;849;-72
2023/05/20 23:54:04;;;;;;;;;;;20.00;51.90;;;;;;10328940;28;1978;-72
2023/05/20 23:58:59;;;;;;;;;;;20.00;51.90;;;;;;10328753;28;873;-72
